createdAt,value
2022-09-10T00:01:40.602Z,17.27
2022-09-10T00:04:13.053Z,17.35
2022-09-10T00:06:42.269Z,17.26
2022-09-10T00:09:13.704Z,17.14
2022-09-10T00:11:43.013Z,17.00
2022-09-10T00:14:15.196Z,17.40
2022-09-10T00:16:43.554Z,17.28
2022-09-10T00:19:12.501Z,17.29
2022-09-10T00:21:40.716Z,17.33
2022-09-10T00:24:09.317Z,17.32
2022-09-10T00:26:39.974Z,17.19
2022-09-10T00:29:10.790Z,17.17
2022-09-10T00:31:40.238Z,17.28
2022-09-10T00:34:09.237Z,17.36
2022-09-10T00:36:41.263Z,17.43
2022-09-10T00:39:12.242Z,17.34
2022-09-10T00:41:45.574Z,17.45
2022-09-10T00:44:59.731Z,17.53
2022-09-10T00:47:34.778Z,17.47
2022-09-10T00:50:15.658Z,17.42
2022-09-10T00:52:47.436Z,17.21
2022-09-10T00:55:17.228Z,17.48
2022-09-10T00:57:50.433Z,17.35
2022-09-10T01:00:19.515Z,17.64
2022-09-10T01:02:48.833Z,17.80
2022-09-10T01:05:20.558Z,17.54
2022-09-10T01:07:49.207Z,17.57
2022-09-10T01:10:23.714Z,17.58
2022-09-10T01:13:31.122Z,17.49
2022-09-10T01:16:11.617Z,17.44
2022-09-10T01:18:53.339Z,17.57
2022-09-10T01:21:27.494Z,17.56
2022-09-10T01:24:39.733Z,17.48
2022-09-10T01:27:41.471Z,17.47
2022-09-10T01:30:15.795Z,17.62
2022-09-10T01:32:58.313Z,17.68
2022-09-10T01:35:39.291Z,17.77
2022-09-10T01:38:15.492Z,17.62
2022-09-10T01:40:44.835Z,17.62
2022-09-10T01:43:18.462Z,17.42
2022-09-10T01:46:06.238Z,17.69
2022-09-10T01:49:09.314Z,17.49
2022-09-10T01:51:58.717Z,17.74
2022-09-10T01:54:47.807Z,17.71
2022-09-10T01:57:30.638Z,17.62
2022-09-10T02:00:09.677Z,17.38
2022-09-10T02:02:49.891Z,17.56
2022-09-10T02:05:22.046Z,17.62
2022-09-10T02:07:59.934Z,17.75
2022-09-10T02:10:29.032Z,17.68
2022-09-10T02:12:58.008Z,17.71
2022-09-10T02:15:56.678Z,17.62
2022-09-10T02:18:28.009Z,17.63
2022-09-10T02:20:58.508Z,17.61
2022-09-10T02:23:35.898Z,17.57
2022-09-10T02:26:04.434Z,17.38
2022-09-10T02:28:32.880Z,17.25
2022-09-10T02:31:02.733Z,17.32
2022-09-10T02:33:31.973Z,17.41
2022-09-10T02:36:00.796Z,17.77
2022-09-10T02:38:30.536Z,17.56
2022-09-10T02:40:59.430Z,17.73
2022-09-10T02:43:27.787Z,17.76
2022-09-10T02:45:58.897Z,17.49
2022-09-10T02:48:31.125Z,17.58
2022-09-10T02:50:59.962Z,17.61
2022-09-10T02:53:31.128Z,17.76
2022-09-10T02:56:03.914Z,17.42
2022-09-10T02:58:34.199Z,17.44
2022-09-10T03:01:09.727Z,17.71
2022-09-10T03:03:41.819Z,17.41
2022-09-10T03:06:10.838Z,17.57
2022-09-10T03:08:39.311Z,17.70
2022-09-10T03:11:08.125Z,17.58
2022-09-10T03:13:36.810Z,17.68
2022-09-10T03:16:05.220Z,17.54
2022-09-10T03:18:35.386Z,17.75
2022-09-10T03:21:14.939Z,16.59
2022-09-10T03:23:44.826Z,17.78
2022-09-10T03:26:15.104Z,17.42
2022-09-10T03:28:45.847Z,17.60
2022-09-10T03:31:16.430Z,17.29
2022-09-10T03:33:48.301Z,17.62
2022-09-10T03:36:19.068Z,17.52
2022-09-10T03:38:49.793Z,17.82
2022-09-10T03:41:18.141Z,17.60
2022-09-10T03:43:47.668Z,17.72
2022-09-10T03:46:16.964Z,17.09
2022-09-10T03:48:50.084Z,17.53
2022-09-10T03:51:25.819Z,17.57
2022-09-10T03:53:54.113Z,17.67
2022-09-10T03:56:23.300Z,17.50
2022-09-10T03:58:51.954Z,17.47
2022-09-10T04:01:21.193Z,17.52
2022-09-10T04:03:50.463Z,17.57
2022-09-10T04:06:18.826Z,17.69
2022-09-10T04:08:50.348Z,17.28
2022-09-10T04:11:20.514Z,17.70
2022-09-10T04:13:49.428Z,17.75
2022-09-10T04:16:18.601Z,17.63
2022-09-10T04:18:47.408Z,17.33
2022-09-10T04:21:17.644Z,17.50
2022-09-10T04:23:49.906Z,17.44
2022-09-10T04:26:20.437Z,17.46
2022-09-10T04:28:50.927Z,17.47
2022-09-10T04:31:19.979Z,17.46
2022-09-10T04:33:49.034Z,17.04
2022-09-10T04:36:20.829Z,17.43
2022-09-10T04:38:51.361Z,17.30
2022-09-10T04:41:19.878Z,17.26
2022-09-10T04:43:49.715Z,17.60
2022-09-10T04:46:18.732Z,17.48
2022-09-10T04:48:50.011Z,17.47
2022-09-10T04:51:22.233Z,17.56
2022-09-10T04:53:54.843Z,17.58
2022-09-10T04:56:27.639Z,17.50
2022-09-10T04:58:56.330Z,17.40
2022-09-10T05:01:24.860Z,17.47
2022-09-10T05:03:54.686Z,17.21
2022-09-10T05:06:23.304Z,17.44
2022-09-10T05:08:51.977Z,17.54
2022-09-10T05:11:22.282Z,17.57
2022-09-10T05:13:50.769Z,17.63
2022-09-10T05:16:22.659Z,17.58
2022-09-10T05:18:51.036Z,17.36
2022-09-10T05:21:20.303Z,17.70
2022-09-10T05:23:49.080Z,17.62
2022-09-10T05:26:17.378Z,17.55
2022-09-10T05:28:47.683Z,17.51
2022-09-10T05:31:17.905Z,17.12
2022-09-10T05:33:47.276Z,17.52
2022-09-10T05:36:15.928Z,17.38
2022-09-10T05:38:46.463Z,17.54
2022-09-10T05:41:16.754Z,17.62
2022-09-10T05:43:49.510Z,17.28
2022-09-10T05:46:18.274Z,17.64
2022-09-10T05:48:50.649Z,17.61
2022-09-10T05:51:20.301Z,17.72
2022-09-10T05:53:50.849Z,17.59
2022-09-10T05:56:20.577Z,17.63
2022-09-10T05:58:50.361Z,17.67
2022-09-10T06:01:19.579Z,17.81
2022-09-10T06:03:51.192Z,17.64
2022-09-10T06:06:20.299Z,17.74
2022-09-10T06:08:59.401Z,17.64
2022-09-10T06:11:45.394Z,17.45
2022-09-10T06:14:15.616Z,17.63
2022-09-10T06:16:44.039Z,17.64
2022-09-10T06:19:13.147Z,17.76
2022-09-10T06:21:41.517Z,17.90
2022-09-10T06:24:10.994Z,17.81
2022-09-10T06:26:42.692Z,17.99
2022-09-10T06:29:15.669Z,18.09
2022-09-10T06:31:44.857Z,18.15
2022-09-10T06:34:14.003Z,17.78
2022-09-10T06:36:43.631Z,17.70
2022-09-10T06:39:14.118Z,18.06
2022-09-10T06:41:50.242Z,18.19
2022-09-10T06:44:39.411Z,18.37
2022-09-10T06:48:12.746Z,18.31
2022-09-10T06:50:12.825Z,18.56
2022-09-10T06:52:44.590Z,18.67
2022-09-10T06:55:15.139Z,18.70
2022-09-10T06:57:47.420Z,18.56
2022-09-10T07:00:19.636Z,18.84
2022-09-10T07:02:54.197Z,18.98
2022-09-10T07:05:24.099Z,19.07
2022-09-10T07:07:54.945Z,18.86
2022-09-10T07:10:23.764Z,18.68
2022-09-10T07:12:53.179Z,18.81
2022-09-10T07:15:24.971Z,18.99
2022-09-10T07:17:53.354Z,19.00
2022-09-10T07:20:25.722Z,19.29
2022-09-10T07:22:55.279Z,19.34
2022-09-10T07:25:27.841Z,19.32
2022-09-10T07:28:13.107Z,19.54
2022-09-10T07:30:47.396Z,19.43
2022-09-10T07:33:17.051Z,19.52
2022-09-10T07:35:46.441Z,19.84
2022-09-10T07:38:17.277Z,20.02
2022-09-10T07:40:48.293Z,20.04
2022-09-10T07:43:17.509Z,20.24
2022-09-10T07:45:47.480Z,19.59
2022-09-10T07:48:16.249Z,19.86
2022-09-10T07:50:45.429Z,19.62
2022-09-10T07:53:17.883Z,19.49
2022-09-10T07:55:47.705Z,19.30
2022-09-10T07:58:16.496Z,19.02
2022-09-10T08:00:47.738Z,19.48
2022-09-10T08:03:18.463Z,19.46
2022-09-10T08:05:48.763Z,19.39
2022-09-10T08:08:17.259Z,19.26
2022-09-10T08:10:45.903Z,19.45
2022-09-10T08:13:16.721Z,19.44
2022-09-10T08:15:45.977Z,19.52
2022-09-10T08:18:15.811Z,19.59
2022-09-10T08:20:44.302Z,19.45
2022-09-10T08:23:12.784Z,19.60
2022-09-10T08:25:49.987Z,19.47
2022-09-10T08:28:22.442Z,19.44
2022-09-10T08:31:00.570Z,19.53
2022-09-10T08:33:31.974Z,19.79
2022-09-10T08:36:01.432Z,19.59
2022-09-10T08:38:34.455Z,19.92
2022-09-10T08:41:09.632Z,20.05
2022-09-10T08:43:45.872Z,20.13
2022-09-10T08:46:23.886Z,20.45
2022-09-10T08:49:05.922Z,20.54
2022-09-10T08:51:42.482Z,20.69
2022-09-10T08:54:17.320Z,20.46
2022-09-10T08:56:47.064Z,20.24
2022-09-10T08:59:23.127Z,20.37
2022-09-10T09:01:59.382Z,20.02
2022-09-10T09:04:44.017Z,20.10
2022-09-10T09:07:15.768Z,20.25
2022-09-10T09:09:48.987Z,20.43
2022-09-10T09:12:31.470Z,20.65
2022-09-10T09:15:11.418Z,20.88
2022-09-10T09:18:04.712Z,20.83
2022-09-10T09:20:46.573Z,21.29
2022-09-10T09:23:23.363Z,21.74
2022-09-10T09:26:08.718Z,21.66
2022-09-10T09:28:45.172Z,21.76
2022-09-10T09:31:18.289Z,21.67
2022-09-10T09:33:54.131Z,20.86
2022-09-10T09:36:32.118Z,21.53
2022-09-10T09:39:00.638Z,21.28
2022-09-10T09:41:36.390Z,21.15
2022-09-10T09:44:17.016Z,20.68
2022-09-10T09:46:45.605Z,20.45
2022-09-10T09:49:16.992Z,20.49
2022-09-10T09:51:52.056Z,20.58
2022-09-10T09:55:03.152Z,20.42
2022-09-10T09:57:19.599Z,19.95
2022-09-10T09:59:49.200Z,20.31
2022-09-10T10:02:21.514Z,20.81
2022-09-10T10:05:07.158Z,21.33
2022-09-10T10:07:37.579Z,21.72
2022-09-10T10:10:08.902Z,22.05
2022-09-10T10:12:49.057Z,21.78
2022-09-10T10:15:38.797Z,21.23
2022-09-10T10:18:31.955Z,20.95
2022-09-10T10:21:21.272Z,21.07
2022-09-10T10:23:51.153Z,21.31
2022-09-10T10:26:31.276Z,21.56
2022-09-10T10:29:04.233Z,21.50
2022-09-10T10:31:42.912Z,21.37
2022-09-10T10:34:45.251Z,22.10
2022-09-10T10:37:29.091Z,22.34
2022-09-10T10:40:21.676Z,22.02
2022-09-10T10:43:00.860Z,22.20
2022-09-10T10:45:44.689Z,22.05
2022-09-10T10:48:20.988Z,22.15
2022-09-10T10:50:58.240Z,22.03
2022-09-10T10:53:48.531Z,22.24
2022-09-10T10:56:26.085Z,22.42
2022-09-10T10:59:24.900Z,22.24
2022-09-10T11:01:59.036Z,22.20
2022-09-10T11:04:36.775Z,22.09
2022-09-10T11:07:13.061Z,22.33
2022-09-10T11:09:46.420Z,22.56
2022-09-10T11:12:21.526Z,22.56
2022-09-10T11:14:56.125Z,22.65
2022-09-10T11:17:34.982Z,22.53
2022-09-10T11:20:30.355Z,21.80
2022-09-10T11:23:12.152Z,22.49
2022-09-10T11:25:53.223Z,22.77
2022-09-10T11:28:37.501Z,22.98
2022-09-10T11:31:14.030Z,23.02
2022-09-10T11:33:53.294Z,22.95
2022-09-10T11:36:30.828Z,23.38
2022-09-10T11:39:15.245Z,23.78
2022-09-10T11:41:47.777Z,23.34
2022-09-10T11:44:38.825Z,23.62
2022-09-10T11:47:15.480Z,23.92
2022-09-10T11:49:51.360Z,24.25
2022-09-10T11:52:22.275Z,24.40
2022-09-10T11:54:51.596Z,24.85
2022-09-10T11:57:34.908Z,24.36
2022-09-10T12:00:16.505Z,23.57
2022-09-10T12:03:36.629Z,23.51
2022-09-10T12:06:13.091Z,23.09
2022-09-10T12:09:07.908Z,23.07
2022-09-10T12:11:48.931Z,22.56
2022-09-10T12:14:21.738Z,22.15
2022-09-10T12:16:55.251Z,22.57
2022-09-10T12:19:29.262Z,22.61
2022-09-10T12:22:04.104Z,22.58
2022-09-10T12:24:36.213Z,22.86
2022-09-10T12:27:07.372Z,23.15
2022-09-10T12:29:38.307Z,23.45
2022-09-10T12:32:30.184Z,24.35
2022-09-10T12:35:48.594Z,24.57
2022-09-10T12:38:50.080Z,24.79
2022-09-10T12:41:58.657Z,25.43
2022-09-10T12:44:57.328Z,25.24
2022-09-10T12:47:52.669Z,24.41
2022-09-10T12:50:46.329Z,23.47
2022-09-10T12:54:10.894Z,22.32
2022-09-10T12:57:18.855Z,22.63
2022-09-10T13:00:18.160Z,22.91
2022-09-10T13:02:58.252Z,23.03
2022-09-10T13:05:32.710Z,23.47
2022-09-10T13:08:18.601Z,22.77
2022-09-10T13:11:03.330Z,21.98
2022-09-10T13:13:40.366Z,22.09
2022-09-10T13:16:17.231Z,21.69
2022-09-10T13:18:48.319Z,21.26
2022-09-10T13:21:55.366Z,21.04
2022-09-10T13:25:00.819Z,20.97
2022-09-10T13:27:41.785Z,21.21
2022-09-10T13:30:19.492Z,21.54
2022-09-10T13:32:53.282Z,21.83
2022-09-10T13:36:06.632Z,22.14
2022-09-10T13:39:31.614Z,22.18
2022-09-10T13:42:31.264Z,22.08
2022-09-10T13:45:30.163Z,22.10
2022-09-10T13:48:06.543Z,22.15
2022-09-10T13:50:41.606Z,22.44
2022-09-10T13:53:15.110Z,22.29
2022-09-10T13:55:56.605Z,22.83
2022-09-10T13:58:29.383Z,23.14
2022-09-10T14:01:02.813Z,22.80
2022-09-10T14:03:33.284Z,22.89
2022-09-10T14:06:04.262Z,23.20
2022-09-10T14:08:38.539Z,23.23
2022-09-10T14:11:15.216Z,23.10
2022-09-10T14:13:48.137Z,22.80
2022-09-10T14:16:22.005Z,23.13
2022-09-10T14:18:58.377Z,23.37
2022-09-10T14:21:28.123Z,23.34
2022-09-10T14:24:00.202Z,23.32
2022-09-10T14:26:33.516Z,23.49
2022-09-10T14:29:04.802Z,23.81
2022-09-10T14:31:37.678Z,23.88
2022-09-10T14:34:26.064Z,24.26
2022-09-10T14:36:54.592Z,23.56
2022-09-10T14:39:25.222Z,23.64
2022-09-10T14:42:10.512Z,23.19
2022-09-10T14:44:43.305Z,23.00
2022-09-10T14:47:26.979Z,22.92
2022-09-10T14:49:57.221Z,22.72
2022-09-10T14:52:25.652Z,22.93
2022-09-10T14:54:56.197Z,22.98
2022-09-10T14:57:24.621Z,23.14
2022-09-10T14:59:57.247Z,23.19
2022-09-10T15:02:29.306Z,23.28
2022-09-10T15:04:57.626Z,23.95
2022-09-10T15:07:27.488Z,23.81
2022-09-10T15:09:57.158Z,23.98
2022-09-10T15:12:29.003Z,23.64
2022-09-10T15:14:59.027Z,23.55
2022-09-10T15:17:28.017Z,23.49
2022-09-10T15:19:56.461Z,23.49
2022-09-10T15:22:27.564Z,23.75
2022-09-10T15:25:10.075Z,23.64
2022-09-10T15:27:39.505Z,24.25
2022-09-10T15:30:09.439Z,24.53
2022-09-10T15:32:37.838Z,24.27
2022-09-10T15:35:07.227Z,24.26
2022-09-10T15:37:35.528Z,24.50
2022-09-10T15:40:06.375Z,24.17
2022-09-10T15:42:35.047Z,24.38
2022-09-10T15:45:03.366Z,24.33
2022-09-10T15:47:33.588Z,24.34
2022-09-10T15:50:01.862Z,24.48
2022-09-10T15:52:30.216Z,24.99
2022-09-10T15:54:58.651Z,25.11
2022-09-10T15:57:29.430Z,25.23
2022-09-10T15:59:58.060Z,25.43
2022-09-10T16:02:26.445Z,25.20
2022-09-10T16:04:55.009Z,25.25
2022-09-10T16:07:23.370Z,25.42
2022-09-10T16:09:51.805Z,25.13
2022-09-10T16:12:20.263Z,25.30
2022-09-10T16:14:53.511Z,25.26
2022-09-10T16:17:22.121Z,25.03
2022-09-10T16:19:51.551Z,24.77
2022-09-10T16:22:20.831Z,24.80
2022-09-10T16:24:49.259Z,24.59
2022-09-10T16:27:18.013Z,24.36
2022-09-10T16:29:48.451Z,24.67
2022-09-10T16:32:18.104Z,24.48
2022-09-10T16:34:46.403Z,24.61
2022-09-10T16:37:15.029Z,24.15
2022-09-10T16:39:43.382Z,24.63
2022-09-10T16:42:11.931Z,24.75
2022-09-10T16:44:41.340Z,24.73
2022-09-10T16:47:09.799Z,24.67
2022-09-10T16:49:39.602Z,24.65
2022-09-10T16:52:07.985Z,24.46
2022-09-10T16:54:38.354Z,24.39
2022-09-10T16:57:06.700Z,24.18
2022-09-10T16:59:35.183Z,24.25
2022-09-10T17:02:04.704Z,23.88
2022-09-10T17:04:34.626Z,23.68
2022-09-10T17:07:04.369Z,23.67
2022-09-10T17:09:32.805Z,23.39
2022-09-10T17:12:01.430Z,23.24
2022-09-10T17:14:29.980Z,23.10
2022-09-10T17:16:58.623Z,23.06
2022-09-10T17:19:29.244Z,22.95
2022-09-10T17:21:57.959Z,22.82
2022-09-10T17:24:28.690Z,22.81
2022-09-10T17:26:57.728Z,22.56
2022-09-10T17:29:27.397Z,22.42
2022-09-10T17:31:57.429Z,22.38
2022-09-10T17:34:27.132Z,22.23
2022-09-10T17:36:56.217Z,22.31
2022-09-10T17:39:28.223Z,22.10
2022-09-10T17:41:58.899Z,21.91
2022-09-10T17:44:27.679Z,21.79
2022-09-10T17:46:56.265Z,21.79
2022-09-10T17:49:24.679Z,21.99
2022-09-10T17:51:53.452Z,22.14
2022-09-10T17:54:23.416Z,22.01
2022-09-10T17:56:51.740Z,22.19
2022-09-10T17:59:22.039Z,22.32
2022-09-10T18:01:50.619Z,22.21
2022-09-10T18:04:21.689Z,22.02
2022-09-10T18:06:52.450Z,22.15
2022-09-10T18:09:21.993Z,22.07
2022-09-10T18:11:50.490Z,22.02
2022-09-10T18:14:23.950Z,22.00
2022-09-10T18:16:52.420Z,22.08
2022-09-10T18:19:20.815Z,21.89
2022-09-10T18:21:51.038Z,21.62
2022-09-10T18:24:22.452Z,21.58
2022-09-10T18:26:53.724Z,21.46
2022-09-10T18:29:25.904Z,21.49
2022-09-10T18:31:56.961Z,21.46
2022-09-10T18:34:27.808Z,21.18
2022-09-10T18:36:59.132Z,20.92
2022-09-10T18:39:29.693Z,20.73
2022-09-10T18:41:59.710Z,20.80
2022-09-10T18:44:33.157Z,20.67
2022-09-10T18:47:02.028Z,20.62
2022-09-10T18:49:30.676Z,20.73
2022-09-10T18:51:59.212Z,20.80
2022-09-10T18:54:29.682Z,20.72
2022-09-10T18:56:58.605Z,20.67
2022-09-10T18:59:28.823Z,20.46
2022-09-10T19:01:57.332Z,20.32
2022-09-10T19:04:28.716Z,20.39
2022-09-10T19:06:58.403Z,20.10
2022-09-10T19:09:29.483Z,20.28
2022-09-10T19:12:00.298Z,20.44
2022-09-10T19:14:32.234Z,20.26
2022-09-10T19:17:02.332Z,20.01
2022-09-10T19:19:33.192Z,20.21
2022-09-10T19:22:07.182Z,20.06
2022-09-10T19:24:54.919Z,19.69
2022-09-10T19:27:24.288Z,19.73
2022-09-10T19:29:54.208Z,19.77
2022-09-10T19:32:23.004Z,19.65
2022-09-10T19:34:52.205Z,19.51
2022-09-10T19:37:21.030Z,19.54
2022-09-10T19:39:49.562Z,19.49
2022-09-10T19:42:18.410Z,19.23
2022-09-10T19:44:46.853Z,19.66
2022-09-10T19:47:16.647Z,19.55
2022-09-10T19:49:45.054Z,19.49
2022-09-10T19:52:14.820Z,19.45
2022-09-10T19:54:43.154Z,19.34
2022-09-10T19:57:11.625Z,19.73
2022-09-10T19:59:40.126Z,19.70
2022-09-10T20:02:10.347Z,19.64
2022-09-10T20:04:40.213Z,19.62
2022-09-10T20:07:08.647Z,19.62
2022-09-10T20:09:39.985Z,19.47
2022-09-10T20:12:09.789Z,19.59
2022-09-10T20:14:38.523Z,19.58
2022-09-10T20:17:06.979Z,19.56
2022-09-10T20:19:35.581Z,19.46
2022-09-10T20:22:05.327Z,19.37
2022-09-10T20:24:34.127Z,19.29
2022-09-10T20:27:02.535Z,19.53
2022-09-10T20:29:32.927Z,19.38
2022-09-10T20:32:01.525Z,19.26
2022-09-10T20:34:31.284Z,19.26
2022-09-10T20:36:59.900Z,19.33
2022-09-10T20:39:31.647Z,19.35
2022-09-10T20:42:00.648Z,19.28
2022-09-10T20:44:30.030Z,19.32
2022-09-10T20:46:58.353Z,19.23
2022-09-10T20:49:27.993Z,19.35
2022-09-10T20:51:57.145Z,19.04
2022-09-10T20:54:25.444Z,19.18
2022-09-10T20:56:55.137Z,19.16
2022-09-10T20:59:27.678Z,18.87
2022-09-10T21:01:56.695Z,18.85
2022-09-10T21:04:26.419Z,19.09
2022-09-10T21:06:55.187Z,19.07
2022-09-10T21:09:23.534Z,19.05
2022-09-10T21:11:51.882Z,19.05
2022-09-10T21:14:21.649Z,19.17
2022-09-10T21:16:49.944Z,18.86
2022-09-10T21:19:18.859Z,18.97
2022-09-10T21:21:48.987Z,18.91
2022-09-10T21:24:20.168Z,18.88
2022-09-10T21:26:49.179Z,18.92
2022-09-10T21:29:21.624Z,18.73
2022-09-10T21:31:50.853Z,18.77
2022-09-10T21:34:19.531Z,18.52
2022-09-10T21:36:47.803Z,18.76
2022-09-10T21:39:18.326Z,18.68
2022-09-10T21:41:49.164Z,18.65
2022-09-10T21:44:20.053Z,18.68
2022-09-10T21:46:50.656Z,18.50
2022-09-10T21:49:20.180Z,18.32
2022-09-10T21:51:49.089Z,18.66
2022-09-10T21:54:20.873Z,18.51
2022-09-10T21:56:50.162Z,18.59
2022-09-10T21:59:19.308Z,18.54
2022-09-10T22:01:50.351Z,18.60
2022-09-10T22:04:22.726Z,18.64
2022-09-10T22:06:52.032Z,18.57
2022-09-10T22:09:21.356Z,18.43
2022-09-10T22:11:53.081Z,18.21
2022-09-10T22:14:24.132Z,18.26
2022-09-10T22:16:55.000Z,18.37
2022-09-10T22:19:27.368Z,18.22
2022-09-10T22:21:56.830Z,18.10
2022-09-10T22:24:26.215Z,18.29
2022-09-10T22:26:54.745Z,18.29
2022-09-10T22:29:23.331Z,18.27
2022-09-10T22:31:53.104Z,17.95
2022-09-10T22:34:22.563Z,18.16
2022-09-10T22:36:50.917Z,18.13
2022-09-10T22:39:21.872Z,18.11
2022-09-10T22:41:51.970Z,17.96
2022-09-10T22:44:20.458Z,17.99
2022-09-10T22:46:49.143Z,17.70
2022-09-10T22:49:19.882Z,18.00
2022-09-10T22:51:49.060Z,17.95
2022-09-10T22:54:17.721Z,17.94
2022-09-10T22:56:46.079Z,18.04
2022-09-10T22:59:16.695Z,17.95
2022-09-10T23:01:47.696Z,18.00
2022-09-10T23:04:18.270Z,17.87
2022-09-10T23:06:46.717Z,17.92
2022-09-10T23:09:17.419Z,17.70
2022-09-10T23:11:46.498Z,17.89
2022-09-10T23:14:17.862Z,17.61
2022-09-10T23:16:49.173Z,17.55
2022-09-10T23:19:22.175Z,17.59
2022-09-10T23:21:52.865Z,17.54
2022-09-10T23:24:24.281Z,17.53
2022-09-10T23:26:53.219Z,17.64
2022-09-10T23:29:23.324Z,17.48
2022-09-10T23:31:53.286Z,17.59
2022-09-10T23:34:23.895Z,17.56
2022-09-10T23:36:53.589Z,17.59
2022-09-10T23:39:24.417Z,17.49
2022-09-10T23:41:55.574Z,17.34
2022-09-10T23:44:24.352Z,17.56
2022-09-10T23:46:53.503Z,17.65
2022-09-10T23:49:24.138Z,17.51
2022-09-10T23:51:52.564Z,17.58
2022-09-10T23:54:20.945Z,17.12
2022-09-10T23:56:49.278Z,17.50
2022-09-10T23:59:17.813Z,17.35
